Time;durP1;ratioP1;P1;durP2;ratioP2;P2;SDS_P1;SDS_P2;PMS_P1;PMS_P2;Temp;Humidity;BMP_temperature;BMP_pressure;BME280_temperature;BME280_humidity;BME280_pressure;Samples;Min_cycle;Max_cycle;Signal;HPM_P1;HPM_P2
2022/05/17 00:01:40;;;;;;;6.13;1.95;;;;;;;17.10;45.35;100407.66;4995615;28;20028;-72
2022/05/17 00:04:06;;;;;;;3.28;1.75;;;;;;;17.10;45.61;100408.44;4977911;28;20364;-71
2022/05/17 00:06:33;;;;;;;5.18;1.42;;;;;;;17.08;45.71;100401.63;4978024;28;20077;-72
2022/05/17 00:08:58;;;;;;;6.13;2.05;;;;;;;17.08;45.59;100402.41;4977941;28;20116;-73
2022/05/17 00:11:26;;;;;;;1.73;1.25;;;;;;;17.06;46.08;100402.16;4995506;28;20113;-73
2022/05/17 00:13:52;;;;;;;3.83;1.88;;;;;;;17.05;45.74;100408.44;4945838;28;20038;-71
2022/05/17 00:16:18;;;;;;;3.17;1.88;;;;;;;16.90;45.69;100379.91;4961605;28;20030;-73
2022/05/17 00:18:45;;;;;;;3.67;1.80;;;;;;;16.99;46.06;100390.38;4995225;28;20037;-73
2022/05/17 00:21:25;;;;;;;4.10;1.67;;;;;;;16.98;46.73;100386.69;4978190;28;20034;-73
2022/05/17 00:23:52;;;;;;;2.78;1.90;;;;;;;16.97;46.16;100393.75;4961411;28;20403;-73
2022/05/17 00:26:17;;;;;;;3.80;1.75;;;;;;;16.97;46.37;100390.13;4977732;28;20022;-73
2022/05/17 00:28:44;;;;;;;2.55;1.80;;;;;;;16.95;46.46;100392.72;4977630;28;20383;-70
2022/05/17 00:31:11;;;;;;;3.30;1.63;;;;;;;16.95;46.00;100384.09;4961045;28;20133;-72
2022/05/17 00:33:38;;;;;;;2.20;1.50;;;;;;;16.90;46.46;100377.03;4977458;28;20072;-73
2022/05/17 00:36:04;;;;;;;7.65;1.70;;;;;;;16.92;46.49;100385.94;4994337;28;20026;-72
2022/05/17 00:38:31;;;;;;;3.15;1.83;;;;;;;16.93;46.52;100387.47;4977382;28;20026;-73
2022/05/17 00:40:57;;;;;;;6.85;1.80;;;;;;;16.92;46.41;100373.63;4977977;28;20042;-73
2022/05/17 00:46:21;;;;;;;2.47;1.40;;;;;;;16.89;46.84;100377.53;4994969;28;20038;-73
2022/05/17 00:48:48;;;;;;;4.10;1.65;;;;;;;16.89;46.72;100384.09;4977254;28;20506;-72
2022/05/17 00:51:14;;;;;;;3.20;1.23;;;;;;;16.88;46.76;100373.09;4961282;28;20045;-72
2022/05/17 00:53:39;;;;;;;3.75;1.70;;;;;;;16.88;46.85;100373.88;4994881;28;20061;-71
2022/05/17 00:56:17;;;;;;;2.65;1.90;;;;;;;16.87;47.34;100360.03;4994243;28;20030;-72
2022/05/17 00:58:49;;;;;;;4.93;1.50;;;;;;;16.86;47.31;100369.97;4960979;28;20383;-72
2022/05/17 01:01:18;;;;;;;3.22;2.10;;;;;;;16.84;47.26;100373.34;4994617;28;20030;-73
2022/05/17 01:03:57;;;;;;;4.03;2.08;;;;;;;16.83;47.39;100368.91;4961237;28;20538;-74
2022/05/17 01:06:27;;;;;;;2.42;1.70;;;;;;;16.78;47.34;100370.47;4994440;28;20030;-72
2022/05/17 01:08:53;;;;;;;3.58;1.70;;;;;;;16.78;47.15;100379.09;4960849;28;20038;-73
2022/05/17 01:11:19;;;;;;;5.80;2.33;;;;;;;16.73;47.10;100379.88;4994195;28;20033;-73
2022/05/17 01:16:38;;;;;;;3.83;1.48;;;;;;;16.71;47.39;100367.31;4979773;28;20040;-72
2022/05/17 01:19:09;;;;;;;2.95;1.35;;;;;;;16.69;47.45;100367.84;4960757;28;20183;-72
2022/05/17 01:21:36;;;;;;;2.72;1.92;;;;;;;16.65;47.08;100357.88;4960802;28;20041;-72
2022/05/17 01:24:01;;;;;;;3.55;1.88;;;;;;;16.67;47.20;100361.03;4976635;28;20038;-71
2022/05/17 01:26:29;;;;;;;2.40;1.50;;;;;;;16.65;47.47;100360.78;4976520;28;20491;-73
2022/05/17 01:28:56;;;;;;;1.88;1.55;;;;;;;16.62;47.30;100365.47;4976527;28;20117;-73
2022/05/17 01:31:22;;;;;;;2.30;1.48;;;;;;;16.63;47.38;100360.50;4976624;28;20031;-73
2022/05/17 01:33:48;;;;;;;3.13;1.45;;;;;;;16.58;47.50;100356.31;4960460;28;20023;-73
2022/05/17 01:36:16;;;;;;;2.90;1.70;;;;;;;16.55;47.91;100365.94;4944329;28;20026;-73
2022/05/17 01:38:45;;;;;;;3.80;1.45;;;;;;;16.48;48.44;100352.06;4976684;28;20038;-73
2022/05/17 01:41:12;;;;;;;4.38;2.10;;;;;;;16.38;48.63;100342.88;4960839;28;20117;-73
2022/05/17 01:43:38;;;;;;;2.47;1.30;;;;;;;16.35;48.88;100351.78;4976638;28;20030;-73
2022/05/17 01:46:09;;;;;;;3.70;1.90;;;;;;;16.26;49.66;100354.88;4994503;28;20132;-72
2022/05/17 01:48:44;;;;;;;4.03;1.67;;;;;;;16.18;50.02;100356.69;4961726;28;20057;-72
2022/05/17 01:51:12;;;;;;;2.90;1.63;;;;;;;16.12;50.24;100361.63;4980581;28;20300;-73
2022/05/17 01:53:39;;;;;;;1.40;1.30;;;;;;;16.05;50.31;100351.41;4980562;28;20041;-72
2022/05/17 01:56:07;;;;;;;2.28;1.35;;;;;;;15.93;50.99;100347.72;4979655;28;20022;-72
2022/05/17 01:58:33;;;;;;;1.80;1.42;;;;;;;15.87;50.79;100361.25;4980296;28;20034;-72
2022/05/17 02:00:59;;;;;;;5.85;1.30;;;;;;;15.72;50.92;100342.63;4998050;28;20026;-72
2022/05/17 02:03:25;;;;;;;2.60;1.70;;;;;;;15.68;51.38;100354.38;4997724;28;20095;-72
2022/05/17 02:05:53;;;;;;;2.28;1.65;;;;;;;15.59;51.62;100353.81;4997558;28;20037;-73
2022/05/17 02:08:18;;;;;;;1.92;1.35;;;;;;;15.53;52.11;100348.03;4994276;28;20133;-72
2022/05/17 02:10:44;;;;;;;4.82;1.92;;;;;;;15.48;51.96;100349.53;4980040;28;20069;-73
2022/05/17 02:13:10;;;;;;;1.58;1.13;;;;;;;15.42;52.29;100348.69;4947924;28;20026;-72
2022/05/17 02:15:38;;;;;;;1.92;1.23;;;;;;;15.36;52.66;100349.94;4963881;28;20033;-72
2022/05/17 02:18:05;;;;;;;4.95;2.10;;;;;;;15.33;52.38;100342.38;4963904;28;20039;-73
2022/05/17 02:20:33;;;;;;;2.60;1.63;;;;;;;15.25;52.87;100344.91;4979879;28;20053;-73
2022/05/17 02:23:00;;;;;;;3.25;1.30;;;;;;;15.29;52.59;100339.75;4980061;28;20117;-72
2022/05/17 02:25:27;;;;;;;2.67;1.58;;;;;;;15.30;52.92;100340.50;4996556;28;20048;-72
2022/05/17 02:27:59;;;;;;;3.67;1.80;;;;;;;15.29;53.20;100339.75;4980080;28;20175;-72
2022/05/17 02:30:25;;;;;;;4.13;1.70;;;;;;;15.31;53.03;100342.88;4979919;28;20483;-73
2022/05/17 02:32:50;;;;;;;2.90;1.77;;;;;;;15.28;52.15;100337.38;4963049;28;20138;-72
2022/05/17 02:35:18;;;;;;;3.55;1.45;;;;;;;15.33;52.90;100343.16;4980217;28;20121;-73
2022/05/17 02:37:46;;;;;;;2.92;1.52;;;;;;;15.35;52.99;100345.50;4963439;28;20105;-72
2022/05/17 02:40:12;;;;;;;3.00;1.60;;;;;;;15.34;52.82;100335.34;4979803;28;20089;-73
2022/05/17 02:42:37;;;;;;;3.13;1.77;;;;;;;15.40;52.41;100333.28;4979701;28;20038;-72
2022/05/17 02:45:05;;;;;;;4.95;1.48;;;;;;;15.38;52.62;100333.81;4997179;28;20038;-72
2022/05/17 02:47:32;;;;;;;4.90;1.48;;;;;;;15.37;52.94;100334.31;4979594;28;20027;-74
2022/05/17 02:49:59;;;;;;;4.95;1.67;;;;;;;15.29;53.14;100333.22;4979300;28;20065;-72
2022/05/17 02:52:24;;;;;;;2.85;1.50;;;;;;;15.31;53.05;100337.13;4963255;28;20442;-73
2022/05/17 02:54:50;;;;;;;2.53;1.30;;;;;;;15.03;54.64;100324.66;4963168;28;20112;-71
2022/05/17 02:57:15;;;;;;;3.40;1.73;;;;;;;15.12;53.88;100347.44;4959722;28;20105;-72
2022/05/17 02:59:42;;;;;;;1.92;1.42;;;;;;;15.20;53.68;100345.66;4977214;28;20049;-72
2022/05/17 03:02:10;;;;;;;3.15;1.35;;;;;;;15.25;53.71;100341.25;4959761;28;20039;-73
2022/05/17 03:04:35;;;;;;;5.40;1.75;;;;;;;15.32;53.21;100338.72;4977506;28;20109;-73
2022/05/17 03:07:01;;;;;;;4.82;2.10;;;;;;;15.40;52.93;100344.75;4977471;28;20101;-73
2022/05/17 03:09:41;;;;;;;4.00;2.00;;;;;;;15.43;53.29;100350.28;4976965;28;20061;-72
2022/05/17 03:12:07;;;;;;;3.67;2.20;;;;;;;15.45;52.89;100349.75;4975677;28;20117;-72
2022/05/17 03:14:37;;;;;;;4.55;2.03;;;;;;;15.45;53.51;100352.63;4959544;28;20473;-72
2022/05/17 03:17:11;;;;;;;3.25;1.45;;;;;;;15.48;53.81;100363.09;4975607;28;20031;-72
2022/05/17 03:19:37;;;;;;;3.30;1.48;;;;;;;15.49;53.32;100359.69;4960219;28;20213;-72
2022/05/17 03:22:04;;;;;;;2.97;1.60;;;;;;;15.48;53.46;100355.28;4976966;28;20383;-73
2022/05/17 03:24:31;;;;;;;2.05;1.15;;;;;;;15.46;53.82;100352.13;4975724;28;20045;-72
2022/05/17 03:26:58;;;;;;;5.45;2.28;;;;;;;15.41;54.67;100347.13;4976861;28;20118;-73
2022/05/17 03:29:26;;;;;;;2.85;1.38;;;;;;;15.42;54.05;100348.69;4959973;28;20109;-72
2022/05/17 03:31:52;;;;;;;3.90;1.83;;;;;;;15.41;53.67;100350.00;4943414;28;20038;-72
2022/05/17 03:34:18;;;;;;;3.63;1.75;;;;;;;15.42;54.33;100345.03;4959168;28;20086;-72
2022/05/17 03:36:44;;;;;;;3.72;2.00;;;;;;;15.42;54.54;100357.31;4976810;28;20097;-72
2022/05/17 03:39:10;;;;;;;2.95;1.58;;;;;;;15.43;54.25;100356.03;4959270;28;20464;-70
2022/05/17 03:41:37;;;;;;;3.85;1.60;;;;;;;15.42;54.92;100353.66;4974160;28;20126;-71
2022/05/17 03:44:03;;;;;;;3.50;1.55;;;;;;;15.46;54.15;100352.13;4959146;28;20035;-72
2022/05/17 03:46:30;;;;;;;3.72;2.25;;;;;;;15.48;53.89;100345.88;4959088;28;20093;-73
2022/05/17 03:49:00;;;;;;;3.47;1.80;;;;;;;15.50;54.69;100351.88;4975228;28;20045;-72
2022/05/17 03:51:25;;;;;;;2.10;1.50;;;;;;;15.46;54.10;100348.44;4975050;28;20034;-73
2022/05/17 03:53:52;;;;;;;2.08;1.60;;;;;;;15.52;54.12;100355.06;4975107;28;20472;-73
2022/05/17 03:56:19;;;;;;;4.47;2.28;;;;;;;15.55;53.94;100366.28;4974777;28;20396;-73
2022/05/17 03:58:45;;;;;;;4.85;2.22;;;;;;;15.55;53.84;100365.50;4959306;28;20037;-72
2022/05/17 04:01:26;;;;;;;4.85;2.20;;;;;;;15.61;54.20;100362.66;4976141;28;20042;-73
2022/05/17 04:03:51;;;;;;;5.78;2.95;;;;;;;15.65;53.70;100363.22;4976433;28;20037;-73
2022/05/17 04:06:19;;;;;;;6.82;2.45;;;;;;;15.69;53.70;100355.16;4974475;28;20043;-73
2022/05/17 04:08:46;;;;;;;6.10;1.85;;;;;;;15.76;53.34;100366.94;4974661;28;20034;-72
2022/05/17 04:11:12;;;;;;;4.15;2.05;;;;;;;15.79;53.60;100356.50;4975401;28;20031;-73
2022/05/17 04:13:38;;;;;;;3.30;1.63;;;;;;;15.85;53.55;100360.19;4974519;28;20039;-73
2022/05/17 04:16:03;;;;;;;2.55;1.70;;;;;;;15.88;53.32;100357.09;4976345;28;20314;-73
2022/05/17 04:18:31;;;;;;;4.95;2.10;;;;;;;16.00;53.26;100355.03;4974829;28;20085;-72
2022/05/17 04:21:15;;;;;;;6.22;2.10;;;;;;;16.07;53.34;100365.28;4974515;28;20034;-74
2022/05/17 04:23:41;;;;;;;6.32;2.10;;;;;;;16.16;52.84;100362.97;4974561;28;20035;-72
2022/05/17 04:26:08;;;;;;;2.90;1.60;;;;;;;16.25;52.25;100359.84;4958323;28;20484;-72
2022/05/17 04:28:34;;;;;;;4.30;2.35;;;;;;;16.37;52.40;100364.34;4958468;28;20476;-73
2022/05/17 04:31:00;;;;;;;3.25;2.13;;;;;;;16.51;51.64;100367.50;4974732;28;20035;-72
2022/05/17 04:33:26;;;;;;;6.53;2.38;;;;;;;16.59;51.59;100375.13;4974505;28;20053;-72
2022/05/17 04:35:52;;;;;;;5.70;2.45;;;;;;;16.66;51.52;100370.97;4974532;28;20027;-71
2022/05/17 04:38:19;;;;;;;7.65;2.72;;;;;;;16.69;51.13;100372.81;4974058;28;20444;-72
2022/05/17 04:40:46;;;;;;;4.00;2.10;;;;;;;16.75;51.38;100362.09;4958500;28;20034;-73
2022/05/17 04:43:11;;;;;;;3.20;2.13;;;;;;;16.79;50.97;100359.75;4976322;28;20107;-71
2022/05/17 04:45:37;;;;;;;6.03;2.30;;;;;;;16.82;51.27;100370.22;4976186;28;20030;-72
2022/05/17 04:48:04;;;;;;;3.78;2.30;;;;;;;16.86;51.44;100369.97;4955070;28;20553;-72
2022/05/17 04:50:31;;;;;;;5.22;2.50;;;;;;;16.90;51.47;100374.16;4964228;28;20396;-72
2022/05/17 04:52:56;;;;;;;5.55;2.42;;;;;;;16.96;51.43;100380.69;4973618;28;20507;-72
2022/05/17 04:55:22;;;;;;;2.72;2.05;;;;;;;17.10;51.27;100387.50;4974849;28;20030;-73
2022/05/17 04:57:48;;;;;;;2.80;1.90;;;;;;;17.17;50.65;100378.34;4973570;28;20054;-73
2022/05/17 05:00:20;;;;;;;4.38;2.90;;;;;;;17.23;50.36;100376.25;4941941;28;20042;-71
2022/05/17 05:02:46;;;;;;;4.25;1.85;;;;;;;17.28;50.48;100378.34;4957761;28;20037;-74
2022/05/17 05:05:14;;;;;;;2.35;2.00;;;;;;;17.22;50.67;100381.22;4970906;28;20261;-73
2022/05/17 05:07:41;;;;;;;4.80;2.33;;;;;;;17.27;50.69;100383.31;4974929;28;20464;-74
2022/05/17 05:10:07;;;;;;;4.40;1.80;;;;;;;17.32;50.62;100390.38;4973720;28;20465;-74
2022/05/17 05:12:35;;;;;;;2.72;2.10;;;;;;;17.32;50.93;100378.09;4957662;28;20039;-73
2022/05/17 05:15:03;;;;;;;5.50;2.30;;;;;;;17.37;50.75;100386.69;4973435;28;20027;-72
2022/05/17 05:17:30;;;;;;;4.25;2.15;;;;;;;17.40;50.76;100390.66;4957040;28;20033;-72
2022/05/17 05:19:55;;;;;;;4.07;2.13;;;;;;;17.47;50.52;100384.34;4973377;28;20027;-72
2022/05/17 05:22:23;;;;;;;4.63;2.33;;;;;;;17.53;50.47;100382.25;4973604;28;20030;-72
2022/05/17 05:24:50;;;;;;;6.65;2.45;;;;;;;17.63;50.46;100386.44;4973366;28;20051;-72
2022/05/17 05:27:16;;;;;;;4.93;2.08;;;;;;;17.69;50.40;100381.47;4957086;28;20030;-72
2022/05/17 05:29:41;;;;;;;5.18;2.00;;;;;;;17.87;49.96;100383.78;4972016;28;20517;-72
2022/05/17 05:32:08;;;;;;;4.53;2.17;;;;;;;17.98;49.57;100383.75;4972930;28;20122;-72
2022/05/17 05:34:34;;;;;;;8.57;2.83;;;;;;;18.18;49.34;100393.38;4973916;28;20049;-72
2022/05/17 05:37:01;;;;;;;3.92;2.58;;;;;;;18.24;49.27;100405.69;4973389;28;20409;-72
2022/05/17 05:39:27;;;;;;;10.10;2.95;;;;;;;18.33;48.65;100409.03;4973142;28;20035;-73
2022/05/17 05:41:53;;;;;;;6.55;2.45;;;;;;;18.24;48.36;100380.50;4974244;28;20109;-72
2022/05/17 05:44:21;;;;;;;5.68;2.40;;;;;;;18.45;47.97;100399.00;4972416;28;20364;-71
2022/05/17 05:46:46;;;;;;;5.18;2.47;;;;;;;18.49;47.65;100398.75;4955746;28;20049;-71
2022/05/17 05:49:12;;;;;;;4.70;2.15;;;;;;;18.45;47.41;100393.25;4973163;28;20022;-70
2022/05/17 05:51:40;;;;;;;2.08;1.85;;;;;;;18.42;47.27;100377.00;4972202;28;20487;-72
2022/05/17 05:54:13;;;;;;;3.97;2.20;;;;;;;18.67;47.54;100397.34;4973407;28;20423;-73
2022/05/17 05:56:38;;;;;;;5.28;2.28;;;;;;;18.80;47.02;100383.88;4978688;28;20059;-72
2022/05/17 05:59:04;;;;;;;2.83;2.08;;;;;;;18.96;46.18;100374.34;4974958;28;20431;-71
2022/05/17 06:01:44;;;;;;;6.30;2.53;;;;;;;19.32;45.82;100397.44;4993544;28;20057;-71
2022/05/17 06:04:11;;;;;;;2.83;2.35;;;;;;;19.23;45.44;100342.88;4993852;28;20042;-71
2022/05/17 06:06:36;;;;;;;14.20;3.08;;;;;;;19.85;44.75;100404.56;4993659;28;20510;-72
2022/05/17 06:09:02;;;;;;;3.80;2.42;;;;;;;20.08;44.79;100400.09;4992378;28;20058;-71
2022/05/17 06:11:30;;;;;;;7.10;2.55;;;;;;;20.41;43.76;100398.94;4960107;28;20030;-72
2022/05/17 06:13:55;;;;;;;3.67;1.80;;;;;;;20.60;42.23;100390.28;4993353;28;20034;-72
2022/05/17 06:16:23;;;;;;;7.70;2.10;;;;;;;20.89;42.30;100394.31;4968935;28;20022;-70
2022/05/17 06:18:49;;;;;;;4.32;2.53;;;;;;;21.19;41.79;100400.72;4958911;28;20022;-73
2022/05/17 06:21:15;;;;;;;3.05;2.28;;;;;;;21.54;40.86;100400.41;4980466;28;20483;-74
2022/05/17 06:23:41;;;;;;;5.85;2.97;;;;;;;21.76;39.87;100392.63;4979758;28;20038;-75
2022/05/17 06:26:08;;;;;;;6.05;2.50;;;;;;;22.13;39.24;100397.47;4979716;28;20030;-75
2022/05/17 06:28:36;;;;;;;3.15;2.22;;;;;;;22.46;39.49;100387.28;4997007;28;20105;-75
2022/05/17 06:31:03;;;;;;;5.15;2.58;;;;;;;23.01;37.71;100386.06;4994808;28;20022;-73
2022/05/17 06:33:29;;;;;;;4.72;2.95;;;;;;;23.40;36.32;100361.06;4975788;28;20037;-74
2022/05/17 06:35:55;;;;;;;4.03;2.60;;;;;;;23.74;36.24;100398.78;4996712;28;20030;-74
2022/05/17 06:38:22;;;;;;;7.65;2.28;;;;;;;23.93;36.13;100397.19;4979271;28;20054;-74
2022/05/17 06:40:48;;;;;;;2.30;2.05;;;;;;;23.98;35.92;100401.28;4979405;28;20045;-75
2022/05/17 06:43:14;;;;;;;2.92;2.10;;;;;;;23.94;35.51;100400.88;4980987;28;20038;-75
2022/05/17 06:45:42;;;;;;;6.10;2.17;;;;;;;23.86;35.28;100412.47;4964545;28;20038;-75
2022/05/17 06:48:09;;;;;;;4.47;2.28;;;;;;;23.61;35.44;100412.09;4979766;28;20039;-75
2022/05/17 06:50:36;;;;;;;5.22;2.08;;;;;;;23.37;35.94;100418.22;4996797;28;20117;-74
2022/05/17 06:53:07;;;;;;;4.63;3.33;;;;;;;23.24;36.11;100424.84;4978999;28;20097;-74
2022/05/17 06:55:34;;;;;;;2.13;1.92;;;;;;;22.98;36.53;100418.38;4995755;28;20096;-75
2022/05/17 06:58:00;;;;;;;7.80;2.03;;;;;;;22.85;36.89;100400.97;4977528;28;20060;-76
2022/05/17 07:00:26;;;;;;;3.88;2.33;;;;;;;22.74;37.05;100405.69;4995701;28;20030;-73
2022/05/17 07:02:52;;;;;;;5.95;2.45;;;;;;;22.57;36.81;100416.88;4978544;28;20027;-73
2022/05/17 07:05:17;;;;;;;6.15;2.70;;;;;;;22.15;37.81;100371.59;4977788;28;20033;-74
2022/05/17 07:07:42;;;;;;;9.18;2.83;;;;;;;22.40;38.02;100416.44;4995218;28;20030;-75
2022/05/17 07:13:16;;;;;;;3.85;2.50;;;;;;;22.10;38.30;100427.63;4923947;29;20051;-75
2022/05/17 07:15:56;;;;;;;8.15;2.83;;;;;;;21.63;39.68;100428.19;4967523;28;20038;-75
2022/05/17 07:18:23;;;;;;;7.50;2.40;;;;;;;21.58;39.62;100431.97;4961220;28;20038;-74
2022/05/17 07:20:56;;;;;;;5.88;2.88;;;;;;;21.45;39.65;100412.44;4977088;28;20088;-73
2022/05/17 07:23:24;;;;;;;3.83;2.53;;;;;;;21.44;40.04;100427.47;4994583;28;20034;-73
2022/05/17 07:25:50;;;;;;;5.13;2.35;;;;;;;21.12;40.49;100410.03;4978565;28;20391;-73
2022/05/17 07:28:25;;;;;;;4.45;2.40;;;;;;;20.77;41.27;100413.97;4978523;28;20421;-73
2022/05/17 07:30:51;;;;;;;9.32;3.30;;;;;;;20.83;41.62;100425.47;4995871;28;20030;-73
2022/05/17 07:33:18;;;;;;;6.18;2.38;;;;;;;20.89;41.63;100429.06;4946620;28;20026;-74
2022/05/17 07:35:44;;;;;;;5.15;2.20;;;;;;;20.92;41.49;100428.00;4962618;28;20388;-73
2022/05/17 07:38:09;;;;;;;10.20;3.45;;;;;;;20.95;41.26;100438.47;4977880;28;20081;-75
2022/05/17 07:40:36;;;;;;;15.20;4.35;;;;;;;20.92;41.37;100440.34;4961925;28;20053;-76
2022/05/17 07:43:02;;;;;;;4.65;2.30;;;;;;;20.79;41.77;100439.47;4962136;28;20030;-75
2022/05/17 07:45:32;;;;;;;5.07;2.25;;;;;;;20.32;42.68;100430.38;4975787;28;20046;-73
2022/05/17 07:47:57;;;;;;;7.00;2.55;;;;;;;20.22;43.18;100441.50;4962128;28;20479;-73
2022/05/17 07:50:23;;;;;;;4.70;2.28;;;;;;;20.33;42.86;100435.59;4962219;28;20031;-72
2022/05/17 07:52:50;;;;;;;8.85;2.25;;;;;;;20.53;42.67;100443.75;4979070;28;20109;-71
2022/05/17 07:55:15;;;;;;;7.68;2.33;;;;;;;20.57;42.99;100435.53;4995665;28;20041;-73
2022/05/17 07:57:44;;;;;;;5.65;2.42;;;;;;;20.48;42.44;100430.16;4995683;28;20395;-71
2022/05/17 08:00:11;;;;;;;8.48;2.58;;;;;;;20.44;42.45;100452.81;4995522;28;20043;-74
2022/05/17 08:02:36;;;;;;;8.93;2.17;;;;;;;20.41;42.11;100430.78;4996005;28;20026;-75
2022/05/17 08:05:03;;;;;;;5.07;2.30;;;;;;;20.49;42.27;100442.50;4995713;28;20019;-74
2022/05/17 08:07:28;;;;;;;6.93;2.63;;;;;;;20.42;42.49;100443.13;4978077;28;20070;-74
2022/05/17 08:09:56;;;;;;;3.83;2.15;;;;;;;20.59;42.35;100461.06;4998129;28;20057;-78
2022/05/17 08:12:38;;;;;;;5.22;2.42;;;;;;;20.54;42.29;100454.03;4995390;28;20156;-75
2022/05/17 08:15:07;;;;;;;6.03;2.75;;;;;;;20.57;42.31;100472.44;4978563;28;20107;-77
2022/05/17 08:17:33;;;;;;;4.22;1.92;;;;;;;20.55;42.66;100457.69;4998030;28;20034;-87
2022/05/17 08:19:58;;;;;;;4.32;2.13;;;;;;;20.60;43.09;100472.09;4979733;28;20100;-78
2022/05/17 08:22:25;;;;;;;5.10;2.50;;;;;;;20.66;42.95;100481.50;4995043;28;20065;-77
2022/05/17 08:27:39;;;;;;;4.63;2.72;;;;;;;20.83;42.26;100472.59;4980245;28;20042;-80
2022/05/17 08:30:20;;;;;;;3.67;2.70;;;;;;;20.91;42.13;100484.34;4994734;28;20117;-81
2022/05/17 08:35:35;;;;;;;4.80;2.58;;;;;;;20.98;41.66;100486.59;4995281;28;20037;-78
2022/05/17 08:38:05;;;;;;;4.43;2.40;;;;;;;20.97;41.82;100470.56;4963981;28;20026;-79
2022/05/17 08:40:59;;;;;;;6.03;2.90;;;;;;;21.06;41.57;100496.25;4962653;28;20030;-77
2022/05/17 08:43:49;;;;;;;4.45;2.35;;;;;;;21.10;41.89;100485.91;4995080;28;20041;-78
2022/05/17 08:46:26;;;;;;;4.20;2.28;;;;;;;21.12;41.30;100488.25;4995017;28;20105;-77
2022/05/17 08:48:54;;;;;;;7.22;2.85;;;;;;;21.10;41.38;100491.72;4994582;28;20160;-75
2022/05/17 08:51:51;;;;;;;4.68;1.88;;;;;;;21.00;41.55;100481.84;4993200;28;20038;-76
2022/05/17 08:54:36;;;;;;;4.38;2.88;;;;;;;21.04;41.83;100487.31;4976962;28;20085;-77
2022/05/17 08:57:17;;;;;;;6.93;3.03;;;;;;;20.96;41.61;100497.97;4977621;28;20046;-76
2022/05/17 08:59:47;;;;;;;5.10;2.50;;;;;;;20.76;41.63;100470.34;4995365;28;20038;-78
2022/05/17 09:02:36;;;;;;;5.78;2.30;;;;;;;20.94;41.62;100504.31;4994835;28;20121;-77
2022/05/17 09:05:08;;;;;;;3.00;2.17;;;;;;;20.86;41.44;100514.94;4978693;28;20081;-75
2022/05/17 09:07:54;;;;;;;5.00;2.53;;;;;;;20.76;41.05;100489.81;4961901;28;20019;-77
2022/05/17 09:10:36;;;;;;;4.57;2.22;;;;;;;20.86;41.61;100511.28;4976782;28;20019;-77
2022/05/17 09:13:13;;;;;;;6.85;2.35;;;;;;;20.89;42.22;100518.84;4994976;28;20029;-78
2022/05/17 09:15:40;;;;;;;7.22;2.50;;;;;;;20.94;42.11;100512.19;4977237;28;20487;-77
2022/05/17 09:18:11;;;;;;;6.35;2.80;;;;;;;20.86;42.06;100514.16;4961389;28;20499;-74
2022/05/17 09:20:38;;;;;;;5.15;1.95;;;;;;;20.84;41.91;100517.59;4962236;28;20031;-76
2022/05/17 09:23:06;;;;;;;7.03;2.10;;;;;;;20.80;42.04;100508.44;4976895;28;20050;-77
2022/05/17 09:25:50;;;;;;;5.30;2.30;;;;;;;20.82;41.73;100517.34;4976864;28;20387;-73
2022/05/17 09:28:25;;;;;;;8.95;2.75;;;;;;;20.81;41.75;100515.00;4994406;28;20097;-73
2022/05/17 09:31:12;;;;;;;7.95;4.93;;;;;;;20.79;41.68;100511.88;4974026;28;20034;-75
2022/05/17 09:33:39;;;;;;;6.80;3.03;;;;;;;20.79;41.45;100511.88;4996087;28;20033;-74
2022/05/17 09:36:08;;;;;;;8.60;3.17;;;;;;;20.79;41.39;100506.09;4995572;28;20052;-76
2022/05/17 09:38:46;;;;;;;9.07;3.08;;;;;;;20.81;41.39;100506.34;4993499;28;20038;-75
2022/05/17 09:41:14;;;;;;;6.50;2.78;;;;;;;20.85;41.13;100498.91;4979832;28;20026;-75
2022/05/17 09:43:45;;;;;;;8.73;2.97;;;;;;;20.94;40.40;100510.09;4996048;28;20490;-76
2022/05/17 09:46:28;;;;;;;7.32;3.20;;;;;;;20.95;40.71;100514.56;4995915;28;20038;-75
2022/05/17 09:54:47;;;;;;;7.80;2.67;;;;;;;21.09;42.01;100515.44;5007742;28;20048;-87
2022/05/17 09:57:32;;;;;;;5.78;2.60;;;;;;;21.03;41.41;100524.19;4995838;28;20061;-86
2022/05/17 10:00:16;;;;;;;4.32;2.22;;;;;;;21.05;42.81;100524.44;5019896;28;20036;-81
2022/05/17 10:02:41;;;;;;;7.07;2.75;;;;;;;21.03;42.33;100538.66;5014729;28;20040;-79
2022/05/17 10:05:25;;;;;;;8.98;3.72;;;;;;;20.98;43.85;100532.94;5015170;28;20034;-82
2022/05/17 10:07:56;;;;;;;7.13;3.42;;;;;;;20.90;45.35;100521.22;5018719;28;20072;-79
2022/05/17 10:10:32;;;;;;;9.02;2.75;;;;;;;20.96;42.89;100524.03;5002095;28;20026;-81
2022/05/17 10:13:25;;;;;;;4.80;2.72;;;;;;;20.97;45.29;100529.25;5002316;28;20084;-79
2022/05/17 10:15:54;;;;;;;4.93;2.85;;;;;;;20.91;45.94;100543.06;5018842;28;20109;-81
2022/05/17 10:18:39;;;;;;;4.20;2.70;;;;;;;20.84;45.54;100534.19;4983383;28;20034;-83
2022/05/17 10:21:22;;;;;;;5.22;2.95;;;;;;;20.84;46.67;100545.78;4999913;28;20026;-83
2022/05/17 10:24:10;;;;;;;6.50;3.17;;;;;;;20.91;46.77;100533.59;5000816;28;20420;-80
2022/05/17 10:26:44;;;;;;;4.30;2.80;;;;;;;20.83;47.66;100535.50;5017045;28;20026;-80
2022/05/17 10:29:18;;;;;;;3.58;2.80;;;;;;;20.76;49.02;100551.41;4983061;28;20030;-78
2022/05/17 10:32:00;;;;;;;5.20;3.10;;;;;;;20.79;50.68;100547.41;5015803;28;20029;-78
2022/05/17 10:34:56;;;;;;;8.05;3.53;;;;;;;20.79;50.53;100546.63;5000285;28;20025;-81
2022/05/17 10:37:36;;;;;;;9.52;3.45;;;;;;;20.75;51.12;100546.94;5008150;28;20025;-78
2022/05/17 10:40:07;;;;;;;6.05;3.53;;;;;;;20.68;52.08;100533.06;5004238;28;20479;-79
2022/05/17 10:42:34;;;;;;;7.32;3.28;;;;;;;20.63;51.51;100534.69;4969209;28;20026;-82
2022/05/17 10:45:00;;;;;;;7.00;3.40;;;;;;;20.52;50.91;100539.84;4973463;28;20039;-79
2022/05/17 10:47:48;;;;;;;5.82;3.13;;;;;;;20.56;51.24;100557.69;4998311;28;20046;-79
2022/05/17 10:50:34;;;;;;;6.65;3.33;;;;;;;20.55;51.02;100568.47;4993246;28;20022;-79
2022/05/17 10:53:26;;;;;;;3.97;2.97;;;;;;;20.60;51.65;100572.63;4986585;28;20022;-77
2022/05/17 10:56:01;;;;;;;6.97;3.60;;;;;;;20.67;51.83;100574.94;4985647;28;20030;-78
2022/05/17 10:59:08;;;;;;;13.60;6.30;;;;;;;20.70;52.37;100573.84;4994217;28;20042;-78
2022/05/17 11:01:52;;;;;;;6.68;4.10;;;;;;;20.69;53.09;100575.16;4996725;28;20486;-78
2022/05/17 11:05:02;;;;;;;6.85;3.80;;;;;;;20.65;54.00;100572.56;4998848;28;20034;-84
2022/05/17 11:07:58;;;;;;;7.50;3.08;;;;;;;20.74;53.95;100565.63;4999419;28;20022;-87
2022/05/17 11:10:58;;;;;;;6.82;3.20;;;;;;;20.78;52.34;100566.09;4982913;28;20102;-85
2022/05/17 11:13:34;;;;;;;5.57;3.78;;;;;;;20.88;53.37;100567.28;5000174;28;20050;-86
2022/05/17 11:16:14;;;;;;;7.15;3.75;;;;;;;20.99;52.73;100561.38;4980329;28;20061;-85
2022/05/17 11:19:24;;;;;;;8.80;4.30;;;;;;;21.07;52.60;100581.81;4980963;28;20114;-82
2022/05/17 11:22:05;;;;;;;13.65;3.80;;;;;;;21.08;52.33;100575.47;4924259;28;20498;-88
2022/05/17 11:24:49;;;;;;;8.57;3.10;;;;;;;21.31;53.62;100581.81;5001334;28;20031;-85
2022/05/17 11:27:34;;;;;;;7.18;3.85;;;;;;;21.48;53.43;100584.44;4999765;28;20031;-84
2022/05/17 11:30:20;;;;;;;10.13;4.32;;;;;;;21.67;52.39;100587.34;5000540;28;20042;-84
2022/05/17 11:33:11;;;;;;;10.70;4.00;;;;;;;21.68;52.13;100554.09;5001641;28;20081;-85
2022/05/17 11:35:48;;;;;;;8.25;4.35;;;;;;;22.22;50.91;100588.59;5001402;28;20062;-81
2022/05/17 11:38:41;;;;;;;9.10;3.92;;;;;;;22.58;50.20;100575.25;4985742;28;20102;-82
2022/05/17 11:41:33;;;;;;;10.85;3.58;;;;;;;22.85;46.83;100589.81;4984132;28;20522;-81
2022/05/17 11:44:05;;;;;;;7.57;3.65;;;;;;;23.11;45.97;100601.44;5001840;28;20038;-78
2022/05/17 11:46:31;;;;;;;6.32;3.47;;;;;;;23.21;45.15;100614.94;5002719;28;20035;-78
2022/05/17 11:49:25;;;;;;;7.25;3.33;;;;;;;23.24;44.59;100604.31;5001198;28;20041;-81
2022/05/17 11:52:00;;;;;;;5.70;3.67;;;;;;;23.25;44.91;100615.38;5000026;28;20037;-85
2022/05/17 11:54:46;;;;;;;8.30;5.47;;;;;;;23.20;43.24;100607.56;5008477;28;20034;-85
2022/05/17 11:57:37;;;;;;;7.28;3.60;;;;;;;23.11;43.02;100604.34;5005084;28;20038;-81
2022/05/17 12:00:26;;;;;;;9.20;3.38;;;;;;;23.00;43.56;100605.34;4979518;28;20042;-79
2022/05/17 12:03:15;;;;;;;6.53;3.47;;;;;;;22.90;43.51;100610.03;4983202;28;20030;-87